sensor_id;sensor_type;location;lat;lon;timestamp;temperature;humidity
18781;DHT22;9519;51.890;8.970;2022-07-17T00:04:21;14.00;73.20
18781;DHT22;9519;51.890;8.970;2022-07-17T00:09:23;13.90;73.50
18781;DHT22;9519;51.890;8.970;2022-07-17T00:14:26;13.80;74.00
18781;DHT22;9519;51.890;8.970;2022-07-17T00:19:29;13.60;74.20
18781;DHT22;9519;51.890;8.970;2022-07-17T00:24:31;13.60;74.50
18781;DHT22;9519;51.890;8.970;2022-07-17T00:29:35;13.50;74.90
18781;DHT22;9519;51.890;8.970;2022-07-17T00:34:37;13.50;75.40
18781;DHT22;9519;51.890;8.970;2022-07-17T00:39:39;13.40;75.60
18781;DHT22;9519;51.890;8.970;2022-07-17T00:44:44;13.30;75.90
18781;DHT22;9519;51.890;8.970;2022-07-17T00:49:47;13.20;76.40
18781;DHT22;9519;51.890;8.970;2022-07-17T00:54:52;13.10;76.60
18781;DHT22;9519;51.890;8.970;2022-07-17T01:00:00;13.00;76.90
18781;DHT22;9519;51.890;8.970;2022-07-17T01:05:03;13.00;77.30
18781;DHT22;9519;51.890;8.970;2022-07-17T01:10:07;12.90;77.60
18781;DHT22;9519;51.890;8.970;2022-07-17T01:15:11;12.90;77.90
18781;DHT22;9519;51.890;8.970;2022-07-17T01:20:15;12.80;78.30
18781;DHT22;9519;51.890;8.970;2022-07-17T01:25:21;12.80;78.50
18781;DHT22;9519;51.890;8.970;2022-07-17T01:30:25;12.70;79.00
18781;DHT22;9519;51.890;8.970;2022-07-17T01:35:27;12.70;79.40
18781;DHT22;9519;51.890;8.970;2022-07-17T01:40:30;12.60;79.70
18781;DHT22;9519;51.890;8.970;2022-07-17T01:45:33;12.60;80.10
18781;DHT22;9519;51.890;8.970;2022-07-17T01:50:35;12.50;80.50
18781;DHT22;9519;51.890;8.970;2022-07-17T01:55:39;12.40;80.70
18781;DHT22;9519;51.890;8.970;2022-07-17T02:00:41;12.40;81.10
18781;DHT22;9519;51.890;8.970;2022-07-17T02:05:44;12.30;81.30
18781;DHT22;9519;51.890;8.970;2022-07-17T02:10:47;12.30;81.80
18781;DHT22;9519;51.890;8.970;2022-07-17T02:15:49;12.20;82.20
18781;DHT22;9519;51.890;8.970;2022-07-17T02:20:51;12.20;82.20
18781;DHT22;9519;51.890;8.970;2022-07-17T02:25:55;12.10;82.50
18781;DHT22;9519;51.890;8.970;2022-07-17T02:30:57;12.00;82.90
18781;DHT22;9519;51.890;8.970;2022-07-17T02:36:00;12.00;83.20
18781;DHT22;9519;51.890;8.970;2022-07-17T02:41:03;12.00;83.60
18781;DHT22;9519;51.890;8.970;2022-07-17T02:46:05;11.90;84.00
18781;DHT22;9519;51.890;8.970;2022-07-17T02:51:08;11.90;84.30
18781;DHT22;9519;51.890;8.970;2022-07-17T02:56:11;11.90;84.50
18781;DHT22;9519;51.890;8.970;2022-07-17T03:01:14;11.80;84.90
18781;DHT22;9519;51.890;8.970;2022-07-17T03:06:16;11.70;85.20
18781;DHT22;9519;51.890;8.970;2022-07-17T03:11:19;11.70;85.50
18781;DHT22;9519;51.890;8.970;2022-07-17T03:16:21;11.60;85.70
18781;DHT22;9519;51.890;8.970;2022-07-17T03:21:23;11.60;86.00
18781;DHT22;9519;51.890;8.970;2022-07-17T03:26:27;11.60;86.30
18781;DHT22;9519;51.890;8.970;2022-07-17T03:31:29;11.50;86.70
18781;DHT22;9519;51.890;8.970;2022-07-17T03:36:31;11.50;87.00
18781;DHT22;9519;51.890;8.970;2022-07-17T03:41:35;11.40;87.30
18781;DHT22;9519;51.890;8.970;2022-07-17T03:46:37;11.40;87.70
18781;DHT22;9519;51.890;8.970;2022-07-17T03:51:39;11.40;88.00
18781;DHT22;9519;51.890;8.970;2022-07-17T03:56:43;11.40;88.40
18781;DHT22;9519;51.890;8.970;2022-07-17T04:01:46;11.40;88.90
18781;DHT22;9519;51.890;8.970;2022-07-17T04:06:48;11.40;89.20
18781;DHT22;9519;51.890;8.970;2022-07-17T04:11:52;11.40;89.60
18781;DHT22;9519;51.890;8.970;2022-07-17T04:16:54;11.40;89.90
18781;DHT22;9519;51.890;8.970;2022-07-17T04:21:56;11.40;90.00
18781;DHT22;9519;51.890;8.970;2022-07-17T04:27:00;11.50;90.50
18781;DHT22;9519;51.890;8.970;2022-07-17T04:32:03;11.50;90.30
18781;DHT22;9519;51.890;8.970;2022-07-17T04:37:06;11.60;90.50
18781;DHT22;9519;51.890;8.970;2022-07-17T04:42:09;11.60;90.60
18781;DHT22;9519;51.890;8.970;2022-07-17T04:47:12;11.60;90.80
18781;DHT22;9519;51.890;8.970;2022-07-17T04:52:15;11.70;91.00
18781;DHT22;9519;51.890;8.970;2022-07-17T04:57:18;11.70;91.20
18781;DHT22;9519;51.890;8.970;2022-07-17T05:02:21;11.70;91.40
18781;DHT22;9519;51.890;8.970;2022-07-17T05:07:24;11.70;91.50
18781;DHT22;9519;51.890;8.970;2022-07-17T05:12:27;11.80;91.80
18781;DHT22;9519;51.890;8.970;2022-07-17T05:17:29;11.90;92.00
18781;DHT22;9519;51.890;8.970;2022-07-17T05:22:31;12.00;92.20
18781;DHT22;9519;51.890;8.970;2022-07-17T05:27:35;12.10;92.30
18781;DHT22;9519;51.890;8.970;2022-07-17T05:32:37;12.20;92.50
18781;DHT22;9519;51.890;8.970;2022-07-17T05:37:39;12.30;92.50
18781;DHT22;9519;51.890;8.970;2022-07-17T05:42:42;12.40;92.80
18781;DHT22;9519;51.890;8.970;2022-07-17T05:47:44;12.60;93.10
18781;DHT22;9519;51.890;8.970;2022-07-17T05:52:46;12.70;93.20
18781;DHT22;9519;51.890;8.970;2022-07-17T05:57:50;13.00;93.40
18781;DHT22;9519;51.890;8.970;2022-07-17T06:02:52;13.10;93.50
18781;DHT22;9519;51.890;8.970;2022-07-17T06:07:56;13.30;93.50
18781;DHT22;9519;51.890;8.970;2022-07-17T06:13:00;13.50;93.40
18781;DHT22;9519;51.890;8.970;2022-07-17T06:18:03;13.60;93.50
18781;DHT22;9519;51.890;8.970;2022-07-17T06:23:06;13.70;93.60
18781;DHT22;9519;51.890;8.970;2022-07-17T06:28:11;13.80;93.50
18781;DHT22;9519;51.890;8.970;2022-07-17T06:33:15;14.00;93.60
18781;DHT22;9519;51.890;8.970;2022-07-17T06:38:17;14.10;93.50
18781;DHT22;9519;51.890;8.970;2022-07-17T06:43:20;14.30;93.60
18781;DHT22;9519;51.890;8.970;2022-07-17T06:48:23;14.40;93.60
18781;DHT22;9519;51.890;8.970;2022-07-17T06:53:25;14.60;93.60
18781;DHT22;9519;51.890;8.970;2022-07-17T06:58:29;14.70;93.50
18781;DHT22;9519;51.890;8.970;2022-07-17T07:03:31;14.90;93.50
18781;DHT22;9519;51.890;8.970;2022-07-17T07:08:33;15.10;93.40
18781;DHT22;9519;51.890;8.970;2022-07-17T07:13:37;15.30;93.30
18781;DHT22;9519;51.890;8.970;2022-07-17T07:18:40;15.40;93.10
18781;DHT22;9519;51.890;8.970;2022-07-17T07:23:42;15.60;93.00
18781;DHT22;9519;51.890;8.970;2022-07-17T07:28:45;15.80;92.90
18781;DHT22;9519;51.890;8.970;2022-07-17T07:33:47;15.90;92.80
18781;DHT22;9519;51.890;8.970;2022-07-17T07:38:49;16.10;92.60
18781;DHT22;9519;51.890;8.970;2022-07-17T07:43:53;16.30;92.70
18781;DHT22;9519;51.890;8.970;2022-07-17T07:48:57;16.50;92.60
18781;DHT22;9519;51.890;8.970;2022-07-17T07:53:59;16.70;92.30
18781;DHT22;9519;51.890;8.970;2022-07-17T07:59:04;16.90;92.30
18781;DHT22;9519;51.890;8.970;2022-07-17T08:04:06;17.00;91.80
18781;DHT22;9519;51.890;8.970;2022-07-17T08:09:08;17.20;91.50
18781;DHT22;9519;51.890;8.970;2022-07-17T08:14:12;17.40;91.30
18781;DHT22;9519;51.890;8.970;2022-07-17T08:19:14;17.50;90.70
18781;DHT22;9519;51.890;8.970;2022-07-17T08:24:16;17.60;89.80
18781;DHT22;9519;51.890;8.970;2022-07-17T08:29:20;17.80;88.80
18781;DHT22;9519;51.890;8.970;2022-07-17T08:34:22;17.90;86.80
18781;DHT22;9519;51.890;8.970;2022-07-17T08:39:24;18.00;86.50
18781;DHT22;9519;51.890;8.970;2022-07-17T08:44:28;18.10;86.70
18781;DHT22;9519;51.890;8.970;2022-07-17T08:49:31;18.30;86.70
18781;DHT22;9519;51.890;8.970;2022-07-17T08:54:34;18.50;84.80
18781;DHT22;9519;51.890;8.970;2022-07-17T08:59:37;18.70;84.70
18781;DHT22;9519;51.890;8.970;2022-07-17T09:04:40;18.80;82.10
18781;DHT22;9519;51.890;8.970;2022-07-17T09:09:49;19.00;83.20
18781;DHT22;9519;51.890;8.970;2022-07-17T09:14:53;19.20;82.90
18781;DHT22;9519;51.890;8.970;2022-07-17T09:19:57;19.30;80.50
18781;DHT22;9519;51.890;8.970;2022-07-17T09:24:59;19.50;79.50
18781;DHT22;9519;51.890;8.970;2022-07-17T09:30:05;19.60;77.60
18781;DHT22;9519;51.890;8.970;2022-07-17T09:35:09;19.70;76.50
18781;DHT22;9519;51.890;8.970;2022-07-17T09:40:14;19.70;70.90
18781;DHT22;9519;51.890;8.970;2022-07-17T09:45:40;19.70;70.30
18781;DHT22;9519;51.890;8.970;2022-07-17T09:50:43;19.80;66.90
18781;DHT22;9519;51.890;8.970;2022-07-17T09:55:46;19.90;67.00
18781;DHT22;9519;51.890;8.970;2022-07-17T10:00:50;20.00;66.60
18781;DHT22;9519;51.890;8.970;2022-07-17T10:05:52;20.10;67.80
18781;DHT22;9519;51.890;8.970;2022-07-17T10:10:54;20.30;67.10
18781;DHT22;9519;51.890;8.970;2022-07-17T10:15:59;20.40;66.70
18781;DHT22;9519;51.890;8.970;2022-07-17T10:21:09;20.50;65.80
18781;DHT22;9519;51.890;8.970;2022-07-17T10:26:14;20.60;63.90
18781;DHT22;9519;51.890;8.970;2022-07-17T10:31:25;20.70;64.70
18781;DHT22;9519;51.890;8.970;2022-07-17T10:36:34;20.80;64.80
18781;DHT22;9519;51.890;8.970;2022-07-17T10:41:38;20.90;64.20
18781;DHT22;9519;51.890;8.970;2022-07-17T10:46:43;21.00;62.70
18781;DHT22;9519;51.890;8.970;2022-07-17T10:51:46;21.00;60.00
18781;DHT22;9519;51.890;8.970;2022-07-17T10:56:48;21.10;60.00
18781;DHT22;9519;51.890;8.970;2022-07-17T11:01:57;21.10;59.70
18781;DHT22;9519;51.890;8.970;2022-07-17T11:07:06;21.30;59.60
18781;DHT22;9519;51.890;8.970;2022-07-17T11:12:08;21.40;58.30
18781;DHT22;9519;51.890;8.970;2022-07-17T11:17:12;21.50;58.50
18781;DHT22;9519;51.890;8.970;2022-07-17T11:22:14;21.60;58.20
18781;DHT22;9519;51.890;8.970;2022-07-17T11:27:19;21.70;55.30
18781;DHT22;9519;51.890;8.970;2022-07-17T11:32:24;21.80;56.30
18781;DHT22;9519;51.890;8.970;2022-07-17T11:37:33;21.90;57.70
18781;DHT22;9519;51.890;8.970;2022-07-17T11:42:35;22.20;58.10
18781;DHT22;9519;51.890;8.970;2022-07-17T11:47:38;22.40;55.70
18781;DHT22;9519;51.890;8.970;2022-07-17T11:52:43;22.50;54.00
18781;DHT22;9519;51.890;8.970;2022-07-17T11:57:48;22.40;54.20
18781;DHT22;9519;51.890;8.970;2022-07-17T12:03:00;22.40;54.90
18781;DHT22;9519;51.890;8.970;2022-07-17T12:08:07;22.50;51.70
18781;DHT22;9519;51.890;8.970;2022-07-17T12:13:10;22.50;53.10
18781;DHT22;9519;51.890;8.970;2022-07-17T12:18:21;22.70;50.90
18781;DHT22;9519;51.890;8.970;2022-07-17T12:23:26;22.80;50.60
18781;DHT22;9519;51.890;8.970;2022-07-17T12:28:29;22.90;50.50
18781;DHT22;9519;51.890;8.970;2022-07-17T12:33:33;23.10;52.10
18781;DHT22;9519;51.890;8.970;2022-07-17T12:38:35;23.30;47.60
18781;DHT22;9519;51.890;8.970;2022-07-17T12:43:38;23.20;48.10
18781;DHT22;9519;51.890;8.970;2022-07-17T12:48:42;23.20;47.70
18781;DHT22;9519;51.890;8.970;2022-07-17T12:53:45;23.20;48.30
18781;DHT22;9519;51.890;8.970;2022-07-17T12:58:47;23.30;46.50
18781;DHT22;9519;51.890;8.970;2022-07-17T13:03:53;23.30;46.80
18781;DHT22;9519;51.890;8.970;2022-07-17T13:08:55;23.50;47.50
18781;DHT22;9519;51.890;8.970;2022-07-17T13:13:58;23.70;46.60
18781;DHT22;9519;51.890;8.970;2022-07-17T13:19:03;23.80;47.10
18781;DHT22;9519;51.890;8.970;2022-07-17T13:24:05;23.90;45.00
18781;DHT22;9519;51.890;8.970;2022-07-17T13:29:08;23.90;46.30
18781;DHT22;9519;51.890;8.970;2022-07-17T13:34:11;24.10;44.80
18781;DHT22;9519;51.890;8.970;2022-07-17T13:39:14;24.20;46.00
18781;DHT22;9519;51.890;8.970;2022-07-17T13:44:16;24.50;45.40
18781;DHT22;9519;51.890;8.970;2022-07-17T13:49:19;24.70;45.10
18781;DHT22;9519;51.890;8.970;2022-07-17T13:54:23;25.00;42.60
18781;DHT22;9519;51.890;8.970;2022-07-17T13:59:25;25.10;43.30
18781;DHT22;9519;51.890;8.970;2022-07-17T14:04:29;25.30;42.70
18781;DHT22;9519;51.890;8.970;2022-07-17T14:09:31;25.60;44.20
18781;DHT22;9519;51.890;8.970;2022-07-17T14:14:33;26.00;43.80
18781;DHT22;9519;51.890;8.970;2022-07-17T14:19:38;26.40;43.00
18781;DHT22;9519;51.890;8.970;2022-07-17T14:24:40;26.60;41.50
18781;DHT22;9519;51.890;8.970;2022-07-17T14:29:42;26.60;39.10
18781;DHT22;9519;51.890;8.970;2022-07-17T14:34:45;26.50;37.60
18781;DHT22;9519;51.890;8.970;2022-07-17T14:39:48;26.30;40.30
18781;DHT22;9519;51.890;8.970;2022-07-17T14:44:50;26.50;38.90
18781;DHT22;9519;51.890;8.970;2022-07-17T14:49:54;26.50;39.50
18781;DHT22;9519;51.890;8.970;2022-07-17T14:54:56;26.50;36.60
18781;DHT22;9519;51.890;8.970;2022-07-17T14:59:58;26.30;38.90
18781;DHT22;9519;51.890;8.970;2022-07-17T15:05:03;26.50;38.10
18781;DHT22;9519;51.890;8.970;2022-07-17T15:10:07;26.70;37.70
18781;DHT22;9519;51.890;8.970;2022-07-17T15:15:10;26.70;34.60
18781;DHT22;9519;51.890;8.970;2022-07-17T15:20:13;26.40;35.80
18781;DHT22;9519;51.890;8.970;2022-07-17T15:25:15;26.30;34.90
18781;DHT22;9519;51.890;8.970;2022-07-17T15:30:18;26.30;36.50
18781;DHT22;9519;51.890;8.970;2022-07-17T15:35:21;26.60;37.20
18781;DHT22;9519;51.890;8.970;2022-07-17T15:40:27;26.90;35.90
18781;DHT22;9519;51.890;8.970;2022-07-17T15:45:29;26.80;35.80
18781;DHT22;9519;51.890;8.970;2022-07-17T15:50:32;26.70;36.60
18781;DHT22;9519;51.890;8.970;2022-07-17T15:55:35;26.70;37.00
18781;DHT22;9519;51.890;8.970;2022-07-17T16:00:37;27.00;37.40
18781;DHT22;9519;51.890;8.970;2022-07-17T16:05:40;27.00;36.20
18781;DHT22;9519;51.890;8.970;2022-07-17T16:10:43;26.80;37.10
18781;DHT22;9519;51.890;8.970;2022-07-17T16:15:45;26.70;37.60
18781;DHT22;9519;51.890;8.970;2022-07-17T16:20:49;26.70;38.00
18781;DHT22;9519;51.890;8.970;2022-07-17T16:25:51;26.70;38.00
18781;DHT22;9519;51.890;8.970;2022-07-17T16:30:54;26.70;38.00
18781;DHT22;9519;51.890;8.970;2022-07-17T16:35:57;26.80;36.80
18781;DHT22;9519;51.890;8.970;2022-07-17T16:41:00;26.50;36.80
18781;DHT22;9519;51.890;8.970;2022-07-17T16:46:02;26.50;38.00
18781;DHT22;9519;51.890;8.970;2022-07-17T16:51:05;26.60;38.50
18781;DHT22;9519;51.890;8.970;2022-07-17T16:56:08;26.80;38.10
18781;DHT22;9519;51.890;8.970;2022-07-17T17:01:10;26.80;38.50
18781;DHT22;9519;51.890;8.970;2022-07-17T17:06:14;26.90;38.90
18781;DHT22;9519;51.890;8.970;2022-07-17T17:11:16;27.00;39.40
18781;DHT22;9519;51.890;8.970;2022-07-17T17:16:18;27.10;39.60
18781;DHT22;9519;51.890;8.970;2022-07-17T17:21:22;27.20;39.20
18781;DHT22;9519;51.890;8.970;2022-07-17T17:26:24;27.10;39.40
18781;DHT22;9519;51.890;8.970;2022-07-17T17:31:26;27.10;39.10
18781;DHT22;9519;51.890;8.970;2022-07-17T17:36:30;26.90;39.30
18781;DHT22;9519;51.890;8.970;2022-07-17T17:41:32;26.90;39.70
18781;DHT22;9519;51.890;8.970;2022-07-17T17:46:35;26.90;40.40
18781;DHT22;9519;51.890;8.970;2022-07-17T17:51:38;26.80;40.30
18781;DHT22;9519;51.890;8.970;2022-07-17T17:56:41;26.80;40.40
18781;DHT22;9519;51.890;8.970;2022-07-17T18:01:44;26.80;40.70
18781;DHT22;9519;51.890;8.970;2022-07-17T18:06:47;26.80;41.00
18781;DHT22;9519;51.890;8.970;2022-07-17T18:11:49;26.70;41.30
18781;DHT22;9519;51.890;8.970;2022-07-17T18:16:53;26.70;41.40
18781;DHT22;9519;51.890;8.970;2022-07-17T18:21:57;26.70;41.70
18781;DHT22;9519;51.890;8.970;2022-07-17T18:26:59;26.50;41.80
18781;DHT22;9519;51.890;8.970;2022-07-17T18:32:01;26.30;41.90
18781;DHT22;9519;51.890;8.970;2022-07-17T18:37:06;26.10;42.10
18781;DHT22;9519;51.890;8.970;2022-07-17T18:42:09;26.00;42.20
18781;DHT22;9519;51.890;8.970;2022-07-17T18:47:11;25.70;42.30
18781;DHT22;9519;51.890;8.970;2022-07-17T18:52:15;25.60;42.60
18781;DHT22;9519;51.890;8.970;2022-07-17T18:57:17;25.40;43.00
18781;DHT22;9519;51.890;8.970;2022-07-17T19:02:19;25.20;43.00
18781;DHT22;9519;51.890;8.970;2022-07-17T19:07:22;25.10;43.40
18781;DHT22;9519;51.890;8.970;2022-07-17T19:12:25;24.90;43.40
18781;DHT22;9519;51.890;8.970;2022-07-17T19:17:28;24.80;43.60
18781;DHT22;9519;51.890;8.970;2022-07-17T19:22:32;24.60;44.00
18781;DHT22;9519;51.890;8.970;2022-07-17T19:27:34;24.40;44.40
18781;DHT22;9519;51.890;8.970;2022-07-17T19:32:37;24.20;44.60
18781;DHT22;9519;51.890;8.970;2022-07-17T19:37:40;24.00;45.00
18781;DHT22;9519;51.890;8.970;2022-07-17T19:42:42;23.80;45.40
18781;DHT22;9519;51.890;8.970;2022-07-17T19:47:45;23.50;46.30
18781;DHT22;9519;51.890;8.970;2022-07-17T19:52:48;23.30;45.80
18781;DHT22;9519;51.890;8.970;2022-07-17T19:57:51;23.10;46.00
18781;DHT22;9519;51.890;8.970;2022-07-17T20:02:53;22.90;46.10
18781;DHT22;9519;51.890;8.970;2022-07-17T20:07:56;22.70;46.50
18781;DHT22;9519;51.890;8.970;2022-07-17T20:12:58;22.50;47.00
18781;DHT22;9519;51.890;8.970;2022-07-17T20:18:00;22.20;47.40
18781;DHT22;9519;51.890;8.970;2022-07-17T20:23:04;22.10;47.80
18781;DHT22;9519;51.890;8.970;2022-07-17T20:28:06;21.90;48.30
18781;DHT22;9519;51.890;8.970;2022-07-17T20:33:09;21.70;48.60
18781;DHT22;9519;51.890;8.970;2022-07-17T20:38:13;21.40;48.70
18781;DHT22;9519;51.890;8.970;2022-07-17T20:43:17;21.20;49.20
18781;DHT22;9519;51.890;8.970;2022-07-17T20:48:20;21.00;49.50
18781;DHT22;9519;51.890;8.970;2022-07-17T20:53:24;20.80;49.70
18781;DHT22;9519;51.890;8.970;2022-07-17T20:58:26;20.60;50.30
18781;DHT22;9519;51.890;8.970;2022-07-17T21:03:29;20.30;50.80
18781;DHT22;9519;51.890;8.970;2022-07-17T21:08:34;20.10;51.30
18781;DHT22;9519;51.890;8.970;2022-07-17T21:13:36;20.00;51.90
18781;DHT22;9519;51.890;8.970;2022-07-17T21:18:38;19.80;52.40
18781;DHT22;9519;51.890;8.970;2022-07-17T21:23:42;19.60;52.80
18781;DHT22;9519;51.890;8.970;2022-07-17T21:28:45;19.40;53.20
18781;DHT22;9519;51.890;8.970;2022-07-17T21:33:47;19.30;53.50
18781;DHT22;9519;51.890;8.970;2022-07-17T21:38:53;19.10;53.80
18781;DHT22;9519;51.890;8.970;2022-07-17T21:43:56;19.00;54.40
18781;DHT22;9519;51.890;8.970;2022-07-17T21:48:58;18.80;54.60
18781;DHT22;9519;51.890;8.970;2022-07-17T21:54:01;18.60;54.90
18781;DHT22;9519;51.890;8.970;2022-07-17T21:59:04;18.50;55.20
18781;DHT22;9519;51.890;8.970;2022-07-17T22:04:07;18.40;55.50
18781;DHT22;9519;51.890;8.970;2022-07-17T22:09:11;18.30;55.70
18781;DHT22;9519;51.890;8.970;2022-07-17T22:14:14;18.20;56.00
18781;DHT22;9519;51.890;8.970;2022-07-17T22:19:16;18.10;56.30
18781;DHT22;9519;51.890;8.970;2022-07-17T22:24:21;18.00;56.40
18781;DHT22;9519;51.890;8.970;2022-07-17T22:29:23;17.80;56.90
18781;DHT22;9519;51.890;8.970;2022-07-17T22:34:26;17.70;57.00
18781;DHT22;9519;51.890;8.970;2022-07-17T22:39:30;17.60;57.40
18781;DHT22;9519;51.890;8.970;2022-07-17T22:44:32;17.50;57.60
18781;DHT22;9519;51.890;8.970;2022-07-17T22:49:34;17.50;57.90
18781;DHT22;9519;51.890;8.970;2022-07-17T22:54:38;17.40;58.10
18781;DHT22;9519;51.890;8.970;2022-07-17T22:59:40;17.30;58.50
18781;DHT22;9519;51.890;8.970;2022-07-17T23:04:43;17.20;58.80
18781;DHT22;9519;51.890;8.970;2022-07-17T23:09:47;17.10;58.80
18781;DHT22;9519;51.890;8.970;2022-07-17T23:14:49;17.10;59.30
18781;DHT22;9519;51.890;8.970;2022-07-17T23:19:51;16.90;59.30
18781;DHT22;9519;51.890;8.970;2022-07-17T23:24:55;16.90;59.60
18781;DHT22;9519;51.890;8.970;2022-07-17T23:29:57;16.80;60.00
18781;DHT22;9519;51.890;8.970;2022-07-17T23:35:01;16.70;60.10
18781;DHT22;9519;51.890;8.970;2022-07-17T23:40:07;16.60;60.50
18781;DHT22;9519;51.890;8.970;2022-07-17T23:45:10;16.50;61.00
18781;DHT22;9519;51.890;8.970;2022-07-17T23:50:12;16.50;61.40
18781;DHT22;9519;51.890;8.970;2022-07-17T23:55:16;16.40;62.10
